Time;durP1;ratioP1;P1;durP2;ratioP2;P2;SDS_P1;SDS_P2;PMS_P1;PMS_P2;Temp;Humidity;BMP_temperature;BMP_pressure;BME280_temperature;BME280_humidity;BME280_pressure;Samples;Min_cycle;Max_cycle;Signal;HPM_P1;HPM_P2
2024/01/20 00:02:26;;;;;;;14.77;6.20;;;-0.20;98.00;;;;;;4992922;28;20814;-66
2024/01/20 00:04:54;;;;;;;20.27;6.90;;;-0.30;98.00;;;;;;4992587;28;20494;-66
2024/01/20 00:07:21;;;;;;;18.93;7.07;;;-0.40;98.00;;;;;;4992864;28;20545;-66
2024/01/20 00:09:49;;;;;;;20.13;6.53;;;-0.50;98.00;;;;;;4992512;28;20460;-67
2024/01/20 00:12:16;;;;;;;19.07;7.10;;;-0.50;98.00;;;;;;4992829;28;20455;-65
2024/01/20 00:14:44;;;;;;;18.37;6.93;;;-0.30;98.00;;;;;;4992567;28;20468;-66
2024/01/20 00:17:13;;;;;;;18.70;6.50;;;-0.30;98.00;;;;;;4992823;28;20462;-67
2024/01/20 00:19:40;;;;;;;13.47;5.50;;;-0.50;98.00;;;;;;4992490;28;20491;-66
2024/01/20 00:22:08;;;;;;;18.20;6.30;;;-0.50;98.00;;;;;;4992505;28;20458;-66
2024/01/20 00:24:36;;;;;;;18.97;6.47;;;-0.50;98.00;;;;;;4975206;28;20450;-66
2024/01/20 00:27:05;;;;;;;13.37;5.97;;;;;;;;;;4992617;28;20451;-66
2024/01/20 00:29:34;;;;;;;19.10;5.83;;;-0.40;98.00;;;;;;4992381;28;20455;-66
2024/01/20 00:32:01;;;;;;;13.13;6.13;;;-0.30;98.00;;;;;;4992565;28;20464;-66
2024/01/20 00:34:31;;;;;;;16.20;6.17;;;-0.40;98.00;;;;;;4992513;28;20466;-67
2024/01/20 00:37:00;;;;;;;17.40;5.83;;;-0.50;98.00;;;;;;4975525;28;20466;-66
2024/01/20 00:39:27;;;;;;;26.17;7.60;;;-0.40;98.00;;;;;;4993939;28;20492;-65
2024/01/20 00:41:55;;;;;;;15.40;6.53;;;-0.50;98.00;;;;;;4996681;28;20463;-66
2024/01/20 00:44:23;;;;;;;12.63;5.73;;;-0.40;98.00;;;;;;4979465;28;20456;-66
2024/01/20 00:46:50;;;;;;;15.57;6.07;;;-0.40;98.00;;;;;;4996387;28;20487;-67
2024/01/20 00:49:17;;;;;;;14.70;5.90;;;-0.40;98.00;;;;;;4996542;28;20468;-66
2024/01/20 00:51:44;;;;;;;15.10;6.13;;;-0.40;98.00;;;;;;4996550;28;20456;-66
2024/01/20 00:54:11;;;;;;;18.63;6.87;;;-0.50;98.00;;;;;;4996536;28;20451;-66
2024/01/20 00:56:39;;;;;;;14.73;6.00;;;-0.40;98.00;;;;;;4996323;28;20470;-66
2024/01/20 00:59:06;;;;;;;21.60;7.50;;;-0.40;98.00;;;;;;4979326;28;20886;-66
2024/01/20 01:01:35;;;;;;;16.83;6.77;;;-0.40;98.00;;;;;;4979203;28;20924;-66
2024/01/20 01:04:02;;;;;;;17.43;6.60;;;-0.40;98.00;;;;;;4996422;28;20505;-66
2024/01/20 01:06:30;;;;;;;17.13;6.57;;;-0.50;98.00;;;;;;4996250;28;20526;-66
2024/01/20 01:08:57;;;;;;;18.17;6.60;;;-0.50;98.00;;;;;;4978696;28;20482;-66
2024/01/20 01:11:24;;;;;;;18.40;7.50;;;-0.40;98.00;;;;;;4979027;28;20664;-65
2024/01/20 01:13:54;;;;;;;15.33;6.37;;;-0.40;98.00;;;;;;4995761;28;20454;-66
2024/01/20 01:16:21;;;;;;;16.37;6.80;;;-0.40;98.00;;;;;;4995771;28;20455;-66
2024/01/20 01:18:50;;;;;;;18.10;6.67;;;-0.50;98.00;;;;;;4995750;28;20455;-66
2024/01/20 01:21:17;;;;;;;19.50;6.77;;;-0.50;98.00;;;;;;4995768;28;20458;-66
2024/01/20 01:23:44;;;;;;;16.13;6.50;;;-0.40;98.00;;;;;;4995589;28;20961;-67
2024/01/20 01:26:11;;;;;;;24.17;7.73;;;-0.40;98.00;;;;;;4995692;28;20494;-65
2024/01/20 01:28:38;;;;;;;18.83;6.70;;;-0.60;98.00;;;;;;4978370;28;20924;-65
2024/01/20 01:31:07;;;;;;;20.73;7.43;;;-0.60;98.00;;;;;;4995337;28;20468;-66
2024/01/20 01:33:36;;;;;;;20.47;7.13;;;-0.70;98.00;;;;;;4978182;28;20525;-65
2024/01/20 01:36:05;;;;;;;21.67;7.60;;;-0.90;98.00;;;;;;4995281;28;20454;-67
2024/01/20 01:38:32;;;;;;;16.17;6.50;;;-0.80;98.00;;;;;;4994708;28;20471;-66
2024/01/20 01:41:00;;;;;;;19.37;7.83;;;-0.80;98.00;;;;;;4994627;28;20467;-66
2024/01/20 01:43:27;;;;;;;15.13;6.40;;;-0.80;98.00;;;;;;4995381;28;20454;-65
2024/01/20 01:45:54;;;;;;;18.00;6.43;;;-0.80;98.00;;;;;;4995247;28;20537;-66
2024/01/20 01:48:22;;;;;;;18.50;7.00;;;-0.70;98.00;;;;;;4995376;28;20451;-66
2024/01/20 01:50:50;;;;;;;18.07;7.13;;;-0.70;98.00;;;;;;4994272;28;20960;-66
2024/01/20 01:53:20;;;;;;;21.10;7.30;;;-0.60;98.00;;;;;;4978146;28;20948;-67
2024/01/20 01:55:48;;;;;;;22.67;7.67;;;-0.60;98.00;;;;;;4995151;28;20452;-67
2024/01/20 01:58:15;;;;;;;17.07;7.33;;;-0.70;98.00;;;;;;4995157;28;20463;-66
2024/01/20 02:00:42;;;;;;;24.73;8.90;;;-0.60;98.00;;;;;;4994843;28;20458;-66
2024/01/20 02:03:09;;;;;;;19.03;7.27;;;-0.60;98.00;;;;;;4995139;28;20470;-66
2024/01/20 02:05:37;;;;;;;17.43;6.33;;;-0.50;98.00;;;;;;4994914;28;20487;-65
2024/01/20 02:08:05;;;;;;;20.20;7.57;;;-0.50;98.00;;;;;;4995075;28;20463;-66
2024/01/20 02:10:36;;;;;;;22.63;8.07;;;-0.50;98.00;;;;;;4994773;28;20467;-66
2024/01/20 02:13:04;;;;;;;21.37;7.13;;;-0.50;98.00;;;;;;4977469;28;20945;-66
2024/01/20 02:15:31;;;;;;;20.90;7.80;;;-0.40;98.00;;;;;;4994658;28;20458;-66
2024/01/20 02:17:58;;;;;;;24.70;8.53;;;-0.50;98.00;;;;;;4994692;28;20459;-66
2024/01/20 02:20:26;;;;;;;26.63;8.77;;;-0.50;98.00;;;;;;4994855;28;20992;-66
2024/01/20 02:22:54;;;;;;;21.03;7.43;;;-0.50;98.00;;;;;;4994496;28;20497;-66
2024/01/20 02:25:21;;;;;;;20.37;7.57;;;-0.70;98.00;;;;;;4994488;28;20470;-66
2024/01/20 02:27:50;;;;;;;27.50;8.13;;;-0.60;98.00;;;;;;4994865;28;20457;-66
2024/01/20 02:30:17;;;;;;;19.60;8.10;;;-0.70;98.00;;;;;;4977392;28;20459;-66
2024/01/20 02:32:44;;;;;;;19.17;7.13;;;-0.70;98.00;;;;;;4977330;28;20465;-66
2024/01/20 02:35:11;;;;;;;18.10;7.60;;;-0.60;98.00;;;;;;4994423;28;20460;-67
2024/01/20 02:37:40;;;;;;;25.00;8.37;;;-0.70;98.00;;;;;;4994567;28;20458;-67
2024/01/20 02:40:09;;;;;;;22.97;8.67;;;-0.80;98.00;;;;;;4994480;28;20458;-66
2024/01/20 02:42:36;;;;;;;23.87;8.13;;;-0.80;98.00;;;;;;4994659;28;20814;-65
2024/01/20 02:45:05;;;;;;;23.43;8.33;;;-0.90;98.00;;;;;;4994495;28;20455;-66
2024/01/20 02:47:32;;;;;;;26.50;8.83;;;-0.80;98.00;;;;;;4994706;28;20527;-67
2024/01/20 02:49:59;;;;;;;21.43;8.73;;;-0.80;98.00;;;;;;4977089;28;20466;-66
2024/01/20 02:52:26;;;;;;;28.10;8.50;;;-0.90;98.00;;;;;;4994651;28;20962;-66
2024/01/20 02:54:53;;;;;;;22.53;7.90;;;-0.90;98.00;;;;;;4994461;28;20455;-66
2024/01/20 02:57:22;;;;;;;22.93;8.33;;;-0.80;98.00;;;;;;4994378;28;20459;-66
2024/01/20 02:59:49;;;;;;;23.03;7.90;;;-0.70;98.00;;;;;;4994130;28;20451;-66
2024/01/20 03:02:16;;;;;;;25.30;9.00;;;-0.70;98.00;;;;;;4994266;28;20455;-66
2024/01/20 03:04:44;;;;;;;23.43;8.43;;;-0.60;98.00;;;;;;4993978;28;20510;-66
2024/01/20 03:07:11;;;;;;;25.00;8.97;;;-0.70;98.00;;;;;;4993547;28;20522;-66
2024/01/20 03:09:38;;;;;;;30.37;9.20;;;-0.80;98.00;;;;;;4993698;28;20463;-66
2024/01/20 03:12:06;;;;;;;24.17;9.23;;;-0.90;98.00;;;;;;4993672;28;20452;-67
2024/01/20 03:14:35;;;;;;;24.37;9.33;;;-0.90;98.00;;;;;;4976698;28;20457;-66
2024/01/20 03:17:02;;;;;;;26.80;9.30;;;-0.80;98.00;;;;;;4993426;28;20453;-67
2024/01/20 03:19:30;;;;;;;22.33;9.53;;;-0.70;98.00;;;;;;4993177;28;20458;-66
2024/01/20 03:21:57;;;;;;;27.30;9.73;;;-0.60;98.00;;;;;;4976045;28;20474;-66
2024/01/20 03:24:24;;;;;;;23.67;8.93;;;-0.40;98.00;;;;;;4993580;28;20450;-66
2024/01/20 03:26:54;;;;;;;27.13;10.33;;;-0.30;98.00;;;;;;4993223;28;20486;-66
2024/01/20 03:29:22;;;;;;;24.67;9.20;;;-0.30;98.00;;;;;;4993320;28;20455;-66
2024/01/20 03:31:51;;;;;;;31.27;10.60;;;-0.30;98.00;;;;;;4993371;28;21111;-66
2024/01/20 03:34:20;;;;;;;27.90;9.77;;;-0.30;98.00;;;;;;4993091;28;20919;-66
2024/01/20 03:36:47;;;;;;;22.63;9.40;;;-0.40;98.00;;;;;;4993173;28;21149;-65
2024/01/20 03:39:14;;;;;;;26.03;9.27;;;-0.50;98.00;;;;;;4992964;28;20454;-67
2024/01/20 03:41:41;;;;;;;28.57;9.43;;;-0.60;98.00;;;;;;4993061;28;20799;-66
2024/01/20 03:44:09;;;;;;;30.00;9.40;;;-0.60;98.00;;;;;;4993557;28;20459;-67
2024/01/20 03:46:36;;;;;;;24.43;8.60;;;-0.70;98.00;;;;;;4992794;28;20522;-66
2024/01/20 03:49:05;;;;;;;29.23;9.07;;;-0.80;98.00;;;;;;4976299;28;20455;-66
2024/01/20 03:51:32;;;;;;;21.07;9.10;;;-1.00;98.00;;;;;;4993131;28;20459;-66
2024/01/20 03:53:59;;;;;;;29.03;10.53;;;-0.90;98.00;;;;;;4992925;28;20456;-67
2024/01/20 03:56:26;;;;;;;23.50;9.70;;;-0.90;98.00;;;;;;4993080;28;20460;-66
2024/01/20 03:58:53;;;;;;;25.17;8.40;;;-0.90;98.00;;;;;;4992798;28;20466;-66
2024/01/20 04:01:20;;;;;;;26.37;9.83;;;-0.90;98.00;;;;;;4992879;28;21001;-66
2024/01/20 04:03:48;;;;;;;30.33;9.30;;;-0.90;98.00;;;;;;4992976;28;20991;-66
2024/01/20 04:06:16;;;;;;;29.33;9.70;;;-1.00;98.00;;;;;;4992395;28;20486;-65
2024/01/20 04:08:43;;;;;;;29.10;8.80;;;-0.90;98.00;;;;;;4992825;28;20462;-66
2024/01/20 04:11:10;;;;;;;29.80;8.83;;;-0.80;98.00;;;;;;4992914;28;20471;-65
2024/01/20 04:13:37;;;;;;;26.70;9.40;;;-0.80;98.00;;;;;;4975060;28;20448;-66
2024/01/20 04:16:05;;;;;;;23.37;9.30;;;-0.70;98.00;;;;;;4992691;28;20456;-66
2024/01/20 04:18:33;;;;;;;32.70;9.40;;;-0.60;98.00;;;;;;4975256;28;20964;-66
2024/01/20 04:21:02;;;;;;;24.83;8.97;;;-0.60;98.00;;;;;;4975577;28;20470;-65
2024/01/20 04:23:31;;;;;;;25.67;8.37;;;-0.60;98.00;;;;;;4992558;28;20553;-66
2024/01/20 04:26:01;;;;;;;27.00;9.43;;;-0.70;98.00;;;;;;4992467;28;20463;-66
2024/01/20 04:28:28;;;;;;;27.70;9.60;;;-0.70;98.00;;;;;;4992712;28;20465;-66
2024/01/20 04:30:55;;;;;;;25.90;9.20;;;-0.70;98.00;;;;;;4992581;28;20458;-66
2024/01/20 04:33:22;;;;;;;28.63;9.30;;;-0.80;98.00;;;;;;4992694;28;20463;-65
2024/01/20 04:35:49;;;;;;;32.97;9.50;;;-0.70;98.00;;;;;;4992558;28;20468;-66
2024/01/20 04:38:16;;;;;;;25.17;8.43;;;-0.80;98.00;;;;;;4992973;28;20474;-67
2024/01/20 04:40:44;;;;;;;29.27;9.50;;;-1.00;98.00;;;;;;4992559;28;20460;-66
2024/01/20 04:43:12;;;;;;;24.73;9.43;;;-1.00;98.00;;;;;;4992952;28;20882;-66
2024/01/20 04:45:39;;;;;;;29.63;9.97;;;-1.00;98.00;;;;;;4992613;28;20458;-65
2024/01/20 04:48:06;;;;;;;23.77;8.47;;;-1.00;98.00;;;;;;4992349;28;20487;-65
2024/01/20 04:50:34;;;;;;;27.00;9.93;;;-1.00;98.00;;;;;;4992601;28;20530;-67
2024/01/20 04:53:02;;;;;;;25.93;9.57;;;-0.90;98.00;;;;;;4992442;28;20462;-67
2024/01/20 04:55:29;;;;;;;25.83;8.43;;;-0.90;98.00;;;;;;4992081;28;20459;-66
2024/01/20 04:57:57;;;;;;;27.33;9.33;;;-1.00;98.00;;;;;;4992152;28;20459;-66
2024/01/20 05:00:25;;;;;;;22.17;8.20;;;-0.90;98.00;;;;;;4992302;28;20583;-66
2024/01/20 05:02:52;;;;;;;26.10;9.40;;;-1.00;98.00;;;;;;4992288;28;20453;-66
2024/01/20 05:05:20;;;;;;;22.37;8.20;;;-1.00;98.00;;;;;;4991971;28;20451;-66
2024/01/20 05:07:47;;;;;;;26.07;9.37;;;-1.10;98.00;;;;;;4991843;28;20527;-66
2024/01/20 05:10:15;;;;;;;24.10;9.63;;;-1.20;98.00;;;;;;4991746;28;20861;-66
2024/01/20 05:12:42;;;;;;;26.63;8.90;;;-1.20;98.00;;;;;;4992141;28;20458;-65
2024/01/20 05:15:12;;;;;;;28.20;9.63;;;-1.20;98.00;;;;;;4991977;28;20459;-66
2024/01/20 05:17:39;;;;;;;22.97;9.00;;;-1.10;98.00;;;;;;4992018;28;21037;-66
2024/01/20 05:20:07;;;;;;;26.93;8.80;;;-1.10;98.00;;;;;;4991956;28;20475;-65
2024/01/20 05:22:34;;;;;;;20.73;7.80;;;-1.10;98.00;;;;;;4991867;28;20467;-67
2024/01/20 05:25:03;;;;;;;27.63;8.40;;;-1.10;98.00;;;;;;4991607;28;20452;-66
2024/01/20 05:27:30;;;;;;;21.50;8.40;;;-1.00;98.00;;;;;;4994560;28;20590;-66
2024/01/20 05:29:57;;;;;;;29.60;10.53;;;-1.10;98.00;;;;;;4995466;28;20497;-65
2024/01/20 05:32:27;;;;;;;26.97;9.50;;;-1.10;98.00;;;;;;4995554;28;20461;-66
2024/01/20 05:34:54;;;;;;;23.30;7.73;;;-1.00;98.00;;;;;;4995449;28;20533;-66
2024/01/20 05:37:21;;;;;;;26.47;8.70;;;-0.80;98.00;;;;;;4995084;28;20453;-66
2024/01/20 05:39:49;;;;;;;23.73;7.87;;;-0.90;98.00;;;;;;4995087;28;20454;-66
2024/01/20 05:42:16;;;;;;;29.00;10.10;;;-0.90;98.00;;;;;;4995224;28;20466;-66
2024/01/20 05:44:43;;;;;;;20.07;7.70;;;-0.90;98.00;;;;;;4995442;28;20819;-66
2024/01/20 05:47:10;;;;;;;23.07;8.10;;;-1.00;98.00;;;;;;4995358;28;20521;-66
2024/01/20 05:49:39;;;;;;;22.67;8.53;;;-1.10;98.00;;;;;;4978112;28;20457;-66
2024/01/20 05:52:08;;;;;;;26.60;8.27;;;-1.10;98.00;;;;;;4994960;28;20461;-66
2024/01/20 05:54:35;;;;;;;24.03;8.77;;;-1.20;98.00;;;;;;4995263;28;20812;-66
2024/01/20 05:57:02;;;;;;;24.43;8.20;;;-1.20;98.00;;;;;;4995215;28;20972;-66
2024/01/20 05:59:29;;;;;;;19.07;7.73;;;-1.30;98.00;;;;;;4995369;28;20977;-66
2024/01/20 06:01:56;;;;;;;15.17;7.73;;;-1.30;98.00;;;;;;4995141;28;20467;-66
2024/01/20 06:04:23;;;;;;;26.40;8.70;;;-1.40;98.00;;;;;;4977751;28;20501;-66
2024/01/20 06:06:52;;;;;;;24.20;7.97;;;-1.40;98.00;;;;;;4995048;28;20891;-65
2024/01/20 06:09:19;;;;;;;22.30;7.97;;;-1.20;98.00;;;;;;4994880;28;20458;-66
2024/01/20 06:11:46;;;;;;;29.97;8.13;;;-1.20;98.00;;;;;;4994478;28;20852;-66
2024/01/20 06:14:13;;;;;;;20.40;8.40;;;-1.10;98.00;;;;;;4994099;28;20452;-66
2024/01/20 06:16:41;;;;;;;18.83;7.57;;;-1.20;98.00;;;;;;4994127;28;20459;-65
2024/01/20 06:19:09;;;;;;;26.70;9.27;;;-1.30;98.00;;;;;;4977722;28;20809;-65
2024/01/20 06:21:36;;;;;;;25.97;9.00;;;-1.20;98.00;;;;;;4976982;28;20480;-65
2024/01/20 06:24:05;;;;;;;32.00;9.53;;;-1.10;98.00;;;;;;4994702;28;20455;-67
2024/01/20 06:26:33;;;;;;;19.87;7.43;;;-1.10;98.00;;;;;;4994639;28;20473;-65
2024/01/20 06:29:00;;;;;;;23.87;7.60;;;-1.00;98.00;;;;;;4994720;28;20464;-66
2024/01/20 06:31:29;;;;;;;19.83;7.57;;;-1.10;98.00;;;;;;4994975;28;20543;-65
2024/01/20 06:33:56;;;;;;;19.87;7.47;;;-1.10;98.00;;;;;;4994927;28;20962;-66
2024/01/20 06:36:25;;;;;;;26.90;9.20;;;-1.20;98.00;;;;;;4994554;28;20462;-66
2024/01/20 06:38:52;;;;;;;21.50;8.33;;;-1.10;98.00;;;;;;4994177;28;20455;-67
2024/01/20 06:41:23;;;;;;;25.13;7.33;;;-1.30;98.00;;;;;;4976761;28;20464;-66
2024/01/20 06:43:50;;;;;;;18.90;7.60;;;-1.30;98.00;;;;;;4994133;28;20459;-67
2024/01/20 06:46:17;;;;;;;23.80;8.20;;;-1.40;98.00;;;;;;4994217;28;20457;-66
2024/01/20 06:48:45;;;;;;;25.63;8.83;;;-1.40;98.00;;;;;;4993843;28;20491;-65
2024/01/20 06:51:14;;;;;;;23.27;8.60;;;-1.40;98.00;;;;;;4993773;28;20955;-66
2024/01/20 06:53:42;;;;;;;26.50;9.10;;;-1.40;98.00;;;;;;4994450;28;20457;-66
2024/01/20 06:56:09;;;;;;;22.70;8.97;;;-1.50;98.00;;;;;;4994096;28;20787;-66
2024/01/20 06:58:38;;;;;;;24.90;8.77;;;-1.60;98.00;;;;;;4994008;28;20455;-66
2024/01/20 07:01:05;;;;;;;27.90;9.90;;;-1.60;98.00;;;;;;4976708;28;20458;-61
2024/01/20 07:03:33;;;;;;;21.80;8.20;;;-1.70;98.00;;;;;;4993949;28;20466;-61
2024/01/20 07:06:00;;;;;;;26.40;8.07;;;-1.80;98.00;;;;;;4976683;28;20458;-61
2024/01/20 07:08:30;;;;;;;34.00;8.60;;;-1.80;98.00;;;;;;4993820;28;20573;-61
2024/01/20 07:10:57;;;;;;;26.90;10.13;;;-1.80;98.00;;;;;;4993557;28;20508;-61
2024/01/20 07:13:24;;;;;;;21.30;8.17;;;-1.80;98.00;;;;;;4993716;28;20687;-61
2024/01/20 07:15:53;;;;;;;23.60;8.17;;;-1.70;98.00;;;;;;4976539;28;20796;-62
2024/01/20 07:18:20;;;;;;;30.23;8.40;;;-1.70;98.00;;;;;;4976454;28;20453;-62
2024/01/20 07:20:47;;;;;;;25.23;8.87;;;-1.80;98.00;;;;;;4993495;28;21249;-62
2024/01/20 07:23:14;;;;;;;19.70;8.27;;;-1.80;98.00;;;;;;4993325;28;20459;-61
2024/01/20 07:25:41;;;;;;;23.80;7.97;;;-1.90;98.00;;;;;;4976517;28;21057;-61
2024/01/20 07:28:08;;;;;;;18.35;7.10;;;-2.00;98.00;;;;;;4993459;28;20972;-61
2024/01/20 07:30:35;;;;;;;20.30;7.90;;;-2.10;98.00;;;;;;4993460;28;20207;-62
2024/01/20 07:33:04;;;;;;;21.77;8.20;;;-2.10;98.00;;;;;;4976197;28;20462;-62
2024/01/20 07:35:32;;;;;;;21.53;8.80;;;-2.20;98.00;;;;;;4993446;28;20544;-62
2024/01/20 07:37:59;;;;;;;24.40;9.27;;;-2.20;98.00;;;;;;4976070;28;20512;-62
2024/01/20 07:40:26;;;;;;;24.50;8.70;;;-2.30;98.00;;;;;;4993199;28;20464;-61
2024/01/20 07:42:53;;;;;;;22.17;7.53;;;-2.40;98.00;;;;;;4993123;28;20457;-61
2024/01/20 07:45:20;;;;;;;24.20;8.17;;;-2.40;98.00;;;;;;4993116;28;20199;-61
2024/01/20 07:47:47;;;;;;;31.90;10.07;;;-2.40;98.00;;;;;;4975725;28;20488;-62
2024/01/20 07:50:17;;;;;;;25.27;8.90;;;-2.30;98.00;;;;;;4992352;28;20206;-61
2024/01/20 07:52:44;;;;;;;25.23;8.90;;;-2.20;98.00;;;;;;4993101;28;20464;-62
2024/01/20 07:55:12;;;;;;;32.23;9.50;;;-2.10;98.00;;;;;;4975925;28;20944;-61
2024/01/20 07:57:40;;;;;;;23.50;8.20;;;-2.10;98.00;;;;;;4992658;28;20529;-62
2024/01/20 08:00:09;;;;;;;23.27;8.27;;;-2.10;98.00;;;;;;4992960;28;20471;-61
2024/01/20 08:02:36;;;;;;;25.80;8.30;;;-2.10;98.00;;;;;;4992966;28;20454;-61
2024/01/20 08:05:05;;;;;;;24.87;8.50;;;-2.10;98.00;;;;;;4993256;28;20542;-62
2024/01/20 08:07:33;;;;;;;25.93;8.63;;;-2.10;98.00;;;;;;4992945;28;20493;-62
2024/01/20 08:10:00;;;;;;;20.33;7.40;;;-2.00;98.00;;;;;;4992921;28;21118;-61
2024/01/20 08:12:27;;;;;;;22.70;7.93;;;-2.00;98.00;;;;;;4975668;28;20453;-62
2024/01/20 08:14:54;;;;;;;25.93;8.90;;;-2.00;98.00;;;;;;4992882;28;20463;-61
2024/01/20 08:17:21;;;;;;;21.87;7.70;;;-2.00;98.00;;;;;;4992842;28;20453;-61
2024/01/20 08:19:49;;;;;;;29.07;8.80;;;-2.00;98.00;;;;;;4992721;28;20970;-62
2024/01/20 08:22:17;;;;;;;25.73;8.90;;;-1.90;98.00;;;;;;4992815;28;20461;-62
2024/01/20 08:24:46;;;;;;;23.97;9.07;;;-1.80;98.00;;;;;;4975338;28;20445;-61
2024/01/20 08:27:14;;;;;;;29.87;9.63;;;-1.70;98.00;;;;;;4992998;28;20458;-61
2024/01/20 08:29:42;;;;;;;30.00;9.27;;;-1.70;98.00;;;;;;4975105;28;20979;-62
2024/01/20 08:32:09;;;;;;;29.63;8.87;;;-1.70;98.00;;;;;;4975613;28;20462;-62
2024/01/20 08:34:37;;;;;;;31.20;9.50;;;-1.80;98.00;;;;;;4992594;28;20450;-62
2024/01/20 08:37:05;;;;;;;23.87;8.40;;;-1.90;98.00;;;;;;4974855;28;20609;-61
2024/01/20 08:39:32;;;;;;;27.97;9.30;;;-1.70;98.00;;;;;;4992235;28;20469;-62
2024/01/20 08:42:03;;;;;;;33.03;9.65;;;-1.80;98.00;;;;;;4992469;28;20497;-61
2024/01/20 08:44:32;;;;;;;22.70;8.90;;;-1.90;98.00;;;;;;4992660;28;20210;-61
2024/01/20 08:46:59;;;;;;;30.63;9.10;;;-2.00;98.00;;;;;;4992222;28;20515;-61
2024/01/20 08:49:26;;;;;;;26.90;9.80;;;-1.90;98.00;;;;;;4992265;28;20486;-62
2024/01/20 08:51:54;;;;;;;27.60;9.33;;;-1.90;98.00;;;;;;4992422;28;20461;-62
2024/01/20 08:54:21;;;;;;;24.37;8.70;;;-2.00;98.00;;;;;;4992196;28;20495;-62
2024/01/20 08:56:49;;;;;;;28.60;9.23;;;-2.00;98.00;;;;;;4992390;28;20464;-61
2024/01/20 08:59:19;;;;;;;27.45;8.82;;;-1.80;98.00;;;;;;4992228;28;20500;-61
2024/01/20 09:01:46;;;;;;;30.17;10.50;;;-1.60;98.00;;;;;;4995616;28;20605;-61
2024/01/20 09:04:13;;;;;;;31.87;10.10;;;-1.50;98.00;;;;;;4996313;28;20465;-62
2024/01/20 09:06:42;;;;;;;30.40;9.70;;;-1.60;98.00;;;;;;4996248;28;20941;-62
2024/01/20 09:09:09;;;;;;;32.70;9.87;;;-1.50;98.00;;;;;;4996194;28;20582;-61
2024/01/20 09:11:36;;;;;;;27.30;9.40;;;-1.40;98.00;;;;;;4995870;28;20525;-62
2024/01/20 09:14:04;;;;;;;22.77;8.53;;;-1.40;98.00;;;;;;4975154;28;20547;-62
2024/01/20 09:16:38;;;;;;;26.80;9.97;;;-1.30;98.00;;;;;;4957263;29;20501;-62
2024/01/20 09:19:06;;;;;;;31.83;10.20;;;-1.20;98.00;;;;;;4957026;29;20456;-62
2024/01/20 09:21:33;;;;;;;34.23;10.17;;;-1.20;98.00;;;;;;4939992;28;20813;-62
2024/01/20 09:24:00;;;;;;;28.87;10.13;;;-1.30;98.00;;;;;;4957159;29;20460;-62
2024/01/20 09:26:27;;;;;;;35.00;9.73;;;-1.20;98.00;;;;;;4956979;28;20453;-62
2024/01/20 09:28:54;;;;;;;29.07;9.93;;;-1.30;98.00;;;;;;4939782;29;20551;-62
2024/01/20 09:31:22;;;;;;;29.50;9.50;;;-1.30;98.00;;;;;;4956824;29;20945;-61
2024/01/20 09:33:51;;;;;;;33.30;10.30;;;-1.10;98.00;;;;;;4956908;29;20874;-62
2024/01/20 09:36:23;;;;;;;29.47;9.87;;;-1.10;98.00;;;;;;4956964;29;20459;-62
2024/01/20 09:38:50;;;;;;;29.80;9.87;;;-1.30;98.00;;;;;;4956855;29;21037;-62
2024/01/20 09:41:19;;;;;;;27.73;9.67;;;-1.40;98.00;;;;;;4956703;29;20462;-62
2024/01/20 09:43:47;;;;;;;27.70;10.17;;;-1.60;98.00;;;;;;4956635;29;20543;-62
2024/01/20 09:46:15;;;;;;;27.33;9.00;;;-1.40;98.00;;;;;;4956699;29;20484;-63
2024/01/20 09:48:43;;;;;;;32.77;9.97;;;-1.40;98.00;;;;;;5192258;23;20496;-63
2024/01/20 09:51:11;;;;;;;24.03;8.73;;;-1.40;98.00;;;;;;5036347;28;20456;-63
2024/01/20 09:53:40;;;;;;;22.53;9.70;;;-1.30;98.00;;;;;;5053924;28;21007;-64
2024/01/20 09:56:07;;;;;;;25.80;10.17;;;-1.20;98.00;;;;;;5053777;28;20461;-63
2024/01/20 09:58:36;;;;;;;28.53;9.63;;;-1.20;98.00;;;;;;5053843;28;20450;-64
2024/01/20 10:01:05;;;;;;;25.80;8.67;;;-1.20;98.00;;;;;;5035902;28;20446;-63
2024/01/20 10:03:39;;;;;;;25.73;8.53;;;-1.30;98.00;;;;;;5053643;28;20446;-63
2024/01/20 10:06:07;;;;;;;30.47;9.83;;;-1.40;98.00;;;;;;5054500;28;20933;-64
2024/01/20 10:08:35;;;;;;;27.50;9.83;;;-1.60;98.00;;;;;;5054395;28;20488;-63
2024/01/20 10:11:03;;;;;;;33.17;9.50;;;-1.30;98.00;;;;;;5054347;28;20462;-64
2024/01/20 10:13:30;;;;;;;21.93;8.47;;;-1.10;98.00;;;;;;5053754;28;20545;-63
2024/01/20 10:15:57;;;;;;;26.27;8.83;;;-1.10;98.00;;;;;;5054029;28;20450;-64
2024/01/20 10:18:25;;;;;;;21.03;8.27;;;-1.10;98.00;;;;;;5054447;28;20465;-63
2024/01/20 10:21:02;;;;;;;25.47;8.63;;;-1.00;98.00;;;;;;5054504;28;20464;-63
2024/01/20 10:23:29;;;;;;;28.17;9.43;;;-0.90;98.00;;;;;;5054008;28;20494;-63
2024/01/20 10:26:09;;;;;;;29.40;9.90;;;-0.70;98.00;;;;;;5053863;28;20449;-64
2024/01/20 10:28:36;;;;;;;28.20;9.23;;;-0.60;98.00;;;;;;5053983;28;20316;-63
2024/01/20 10:31:07;;;;;;;27.73;9.90;;;-0.50;98.00;;;;;;5053616;28;20447;-63
2024/01/20 10:33:35;;;;;;;22.43;8.33;;;-0.50;98.00;;;;;;5053705;28;20492;-63
2024/01/20 10:36:04;;;;;;;25.48;8.55;;;-0.50;98.00;;;;;;5053747;28;20483;-64
2024/01/20 10:38:33;;;;;;;34.30;10.67;;;-0.40;98.00;;;;;;5053834;28;20212;-63
2024/01/20 10:41:03;;;;;;;26.67;9.93;;;-0.30;98.00;;;;;;5053710;28;20929;-64
2024/01/20 10:43:39;;;;;;;29.33;10.57;;;-0.50;98.00;;;;;;5053375;28;20468;-63
2024/01/20 10:46:12;;;;;;;26.40;8.93;;;-0.60;98.00;;;;;;5036716;28;20450;-64
2024/01/20 10:48:43;;;;;;;25.67;9.23;;;-0.70;98.00;;;;;;5052556;28;20483;-63
2024/01/20 10:51:15;;;;;;;26.97;8.50;;;-0.70;98.00;;;;;;5034968;28;20491;-64
2024/01/20 10:53:43;;;;;;;26.20;9.70;;;-0.40;98.00;;;;;;5052947;28;20456;-64
2024/01/20 10:56:12;;;;;;;22.03;8.50;;;-0.40;98.00;;;;;;5053282;28;20447;-63
2024/01/20 10:58:44;;;;;;;30.80;9.93;;;-0.30;98.00;;;;;;5053490;28;20448;-63
2024/01/20 11:01:12;;;;;;;30.50;10.03;;;-0.20;98.00;;;;;;5053250;28;20500;-63
2024/01/20 11:03:39;;;;;;;23.50;9.03;;;-0.10;98.00;;;;;;5053178;28;20488;-63
2024/01/20 11:06:07;;;;;;;27.73;10.20;;;0.10;98.00;;;;;;5053088;28;20472;-63
2024/01/20 11:08:34;;;;;;;28.00;9.40;;;0.20;98.00;;;;;;5052934;28;20845;-64
2024/01/20 11:11:01;;;;;;;28.57;10.57;;;0.40;98.00;;;;;;5052888;28;20454;-63
2024/01/20 11:13:29;;;;;;;28.10;10.50;;;0.50;98.00;;;;;;5052993;28;20460;-63
2024/01/20 11:15:57;;;;;;;30.27;9.97;;;0.60;98.00;;;;;;5052823;28;20453;-64
2024/01/20 11:18:26;;;;;;;32.23;11.00;;;0.60;98.00;;;;;;5053211;28;20469;-63
2024/01/20 11:20:55;;;;;;;20.00;7.80;;;0.70;98.00;;;;;;5052691;28;20856;-64
2024/01/20 11:23:22;;;;;;;29.10;9.70;;;0.90;98.00;;;;;;5052118;28;20460;-64
2024/01/20 11:25:50;;;;;;;22.40;8.23;;;1.10;98.00;;;;;;5039271;28;20514;-63
2024/01/20 11:28:25;;;;;;;29.93;8.90;;;1.20;98.00;;;;;;5052098;28;20451;-64
2024/01/20 11:30:54;;;;;;;29.13;9.13;;;1.30;98.00;;;;;;5051411;28;20468;-64
2024/01/20 11:33:21;;;;;;;30.77;9.80;;;1.30;98.00;;;;;;5052591;28;20460;-63
2024/01/20 11:35:51;;;;;;;24.03;9.87;;;1.40;98.00;;;;;;5052599;28;20449;-63
2024/01/20 11:38:19;;;;;;;26.47;8.47;;;1.60;98.00;;;;;;5052453;28;20457;-64
2024/01/20 11:40:57;;;;;;;25.97;9.70;;;1.80;98.00;;;;;;5052268;28;20513;-63
2024/01/20 11:43:24;;;;;;;26.63;9.97;;;1.90;98.00;;;;;;5052552;28;20453;-63
2024/01/20 11:45:53;;;;;;;25.07;9.33;;;2.00;98.00;;;;;;5052632;28;20454;-64
2024/01/20 11:48:21;;;;;;;30.43;10.17;;;2.20;98.00;;;;;;5034661;28;20463;-63
2024/01/20 11:50:48;;;;;;;26.50;9.23;;;2.20;98.00;;;;;;5052357;28;20463;-63
2024/01/20 11:53:15;;;;;;;33.77;11.33;;;2.30;98.00;;;;;;5052491;28;20460;-63
2024/01/20 11:55:53;;;;;;;31.97;9.87;;;2.00;98.00;;;;;;5052399;28;20453;-64
2024/01/20 11:58:20;;;;;;;24.10;10.20;;;2.20;98.00;;;;;;5052493;28;20496;-64
2024/01/20 12:00:50;;;;;;;23.20;9.43;;;2.50;98.00;;;;;;5051027;28;20500;-63
2024/01/20 12:03:19;;;;;;;33.97;10.53;;;2.50;98.00;;;;;;5051360;28;20895;-63
2024/01/20 12:05:46;;;;;;;23.67;9.87;;;2.40;98.00;;;;;;5052539;28;20773;-63
2024/01/20 12:08:14;;;;;;;30.67;9.90;;;2.50;98.00;;;;;;5052360;28;20449;-63
2024/01/20 12:10:42;;;;;;;28.90;9.70;;;2.50;98.00;;;;;;5052236;28;20462;-64
2024/01/20 12:13:11;;;;;;;27.33;10.07;;;2.90;98.00;;;;;;5051170;28;20862;-64
2024/01/20 12:15:39;;;;;;;39.67;11.90;;;3.20;98.00;;;;;;5051816;28;20974;-63
2024/01/20 12:18:06;;;;;;;34.93;11.27;;;3.20;98.00;;;;;;5051745;28;20931;-63
2024/01/20 12:20:37;;;;;;;33.23;11.10;;;3.20;98.00;;;;;;5050730;28;20445;-64
2024/01/20 12:23:04;;;;;;;26.27;10.43;;;3.50;98.00;;;;;;5051952;28;20458;-64
2024/01/20 12:25:31;;;;;;;26.07;10.10;;;3.70;98.00;;;;;;5051727;28;20461;-64
2024/01/20 12:27:59;;;;;;;30.10;10.63;;;3.80;98.00;;;;;;5051612;28;20788;-63
2024/01/20 12:30:28;;;;;;;34.53;10.70;;;3.80;98.00;;;;;;5051589;28;20482;-63
2024/01/20 12:32:56;;;;;;;28.20;11.13;;;3.90;98.00;;;;;;5051764;28;20532;-64
2024/01/20 12:35:24;;;;;;;29.73;10.97;;;4.00;98.00;;;;;;5051360;28;20453;-64
2024/01/20 12:37:52;;;;;;;33.23;11.33;;;4.00;98.00;;;;;;5050409;28;20450;-64
2024/01/20 12:40:21;;;;;;;31.23;11.57;;;4.30;98.00;;;;;;5051776;28;20805;-64
2024/01/20 12:42:49;;;;;;;34.80;11.63;;;4.80;98.00;;;;;;5054076;28;20804;-64